Time;durP1;ratioP1;P1;durP2;ratioP2;P2;SDS_P1;SDS_P2;PMS_P1;PMS_P2;Temp;Humidity;BMP_temperature;BMP_pressure;BME280_temperature;BME280_humidity;BME280_pressure;Samples;Min_cycle;Max_cycle;Signal;HPM_P1;HPM_P2
2021/11/05 00:02:08;;;;;;;13.73;10.30;;;;;;;7.54;96.40;100220.31;4997223;28;20056;-60
2021/11/05 00:04:35;;;;;;;16.35;10.63;;;;;;;7.50;96.21;100226.59;4998717;28;20045;-54
2021/11/05 00:07:02;;;;;;;14.68;10.50;;;;;;;7.49;96.48;100227.50;5003292;28;20057;-52
2021/11/05 00:09:28;;;;;;;15.95;10.05;;;;;;;7.47;96.52;100224.06;4991604;28;20069;-54
2021/11/05 00:11:55;;;;;;;13.18;10.43;;;;;;;7.45;96.64;100233.81;4996523;28;20045;-54
2021/11/05 00:14:21;;;;;;;13.88;10.45;;;;;;;7.39;96.57;100232.28;4995897;28;20054;-54
2021/11/05 00:16:48;;;;;;;14.48;10.60;;;;;;;7.37;96.98;100238.50;4998761;28;20046;-52
2021/11/05 00:19:14;;;;;;;14.88;10.20;;;;;;;7.35;97.38;100238.56;4992132;28;20131;-53
2021/11/05 00:21:41;;;;;;;16.35;10.75;;;;;;;7.34;97.46;100250.00;4999285;28;20053;-53
2021/11/05 00:24:07;;;;;;;15.65;10.55;;;;;;;7.33;97.82;100250.06;4994185;28;20130;-54
2021/11/05 00:26:34;;;;;;;15.73;10.70;;;;;;;7.30;97.90;100250.16;4998149;28;20395;-53
2021/11/05 00:29:00;;;;;;;14.07;10.65;;;;;;;7.31;98.05;100251.88;4991734;28;20392;-52
2021/11/05 00:31:27;;;;;;;15.75;11.32;;;;;;;7.23;98.21;100249.53;4999005;28;20062;-53
2021/11/05 00:33:53;;;;;;;16.42;11.65;;;;;;;7.24;98.58;100253.88;4992267;28;20052;-53
2021/11/05 00:36:20;;;;;;;15.73;11.27;;;;;;;7.23;98.25;100254.81;4995491;28;20715;-54
2021/11/05 00:38:46;;;;;;;15.10;10.95;;;;;;;7.20;98.70;100259.31;4990089;28;20057;-54
2021/11/05 00:41:15;;;;;;;15.48;11.85;;;;;;;7.19;98.99;100263.72;4997427;28;20973;-54
2021/11/05 00:43:42;;;;;;;15.73;11.25;;;;;;;7.18;99.10;100262.00;4995773;28;20073;-55
2021/11/05 00:46:09;;;;;;;15.07;11.00;;;;;;;7.17;99.17;100262.91;5002121;28;20050;-53
2021/11/05 00:48:37;;;;;;;15.65;11.48;;;;;;;7.12;99.42;100274.50;4988902;28;20141;-55
2021/11/05 00:51:03;;;;;;;16.38;11.43;;;;;;;7.12;99.56;100275.38;4999261;28;20049;-53
2021/11/05 00:53:30;;;;;;;16.83;11.73;;;;;;;7.08;99.75;100268.50;4999944;28;20046;-53
2021/11/05 00:55:56;;;;;;;17.48;11.55;;;;;;;7.09;100.00;100267.56;4999740;28;20049;-53
2021/11/05 00:58:23;;;;;;;17.08;11.52;;;;;;;7.08;100.00;100271.16;5005193;28;20045;-53
2021/11/05 01:00:49;;;;;;;16.58;11.80;;;;;;;7.09;100.00;100272.84;4996569;28;20062;-54
2021/11/05 01:03:16;;;;;;;16.13;11.43;;;;;;;7.11;100.00;100273.66;4986071;28;20042;-53
2021/11/05 01:05:43;;;;;;;15.20;10.93;;;;;;;7.03;100.00;100268.66;4992703;28;20052;-54
2021/11/05 01:08:09;;;;;;;18.33;11.60;;;;;;;7.15;100.00;100283.16;4994849;28;20072;-52
2021/11/05 01:10:37;;;;;;;17.45;11.52;;;;;;;7.15;100.00;100287.56;4999373;28;20038;-53
2021/11/05 01:13:06;;;;;;;18.05;11.23;;;;;;;7.13;100.00;100294.66;5000507;28;20064;-52
2021/11/05 01:15:33;;;;;;;17.00;11.32;;;;;;;7.17;100.00;100291.03;4999998;28;20057;-53
2021/11/05 01:18:00;;;;;;;16.58;11.70;;;;;;;7.18;100.00;100290.09;4999904;28;20058;-54
2021/11/05 01:20:26;;;;;;;16.35;11.23;;;;;;;7.18;100.00;100288.34;4999785;28;20533;-53
2021/11/05 01:22:52;;;;;;;15.93;11.27;;;;;;;7.20;100.00;100293.56;5002434;28;20057;-52
2021/11/05 01:25:19;;;;;;;18.73;11.32;;;;;;;7.21;100.00;100300.53;5001165;28;20046;-54
2021/11/05 01:27:48;;;;;;;15.90;10.45;;;;;;;7.20;100.00;100306.72;5001905;28;20070;-52
2021/11/05 01:30:15;;;;;;;19.10;10.75;;;;;;;7.20;100.00;100312.00;4991336;28;20072;-53
2021/11/05 01:32:42;;;;;;;13.95;10.65;;;;;;;7.19;100.00;100302.38;5001260;28;20053;-56
2021/11/05 01:35:10;;;;;;;16.77;10.65;;;;;;;7.22;100.00;100308.41;5002570;28;20042;-54
2021/11/05 01:37:37;;;;;;;16.85;10.80;;;;;;;7.25;100.00;100305.63;5001028;28;20057;-54
2021/11/05 01:40:05;;;;;;;13.93;10.20;;;;;;;7.25;100.00;100305.63;4996074;28;20065;-51
2021/11/05 01:42:34;;;;;;;16.98;11.25;;;;;;;7.25;100.00;100310.91;5001596;28;21830;-54
2021/11/05 01:45:00;;;;;;;15.30;10.25;;;;;;;7.26;100.00;100312.63;5004121;28;20069;-53
2021/11/05 01:47:27;;;;;;;14.80;10.18;;;;;;;7.30;100.00;100316.88;5000020;28;20776;-54
2021/11/05 01:49:54;;;;;;;16.25;10.35;;;;;;;7.31;100.00;100315.09;4994472;28;20049;-54
2021/11/05 01:52:20;;;;;;;15.40;10.65;;;;;;;7.30;100.00;100318.66;5003103;28;20096;-56
2021/11/05 01:54:48;;;;;;;14.80;10.07;;;;;;;7.27;100.00;100327.50;5002198;28;20068;-53
2021/11/05 01:57:15;;;;;;;17.45;10.95;;;;;;;7.25;100.00;100321.44;5000800;28;20045;-53
2021/11/05 01:59:41;;;;;;;16.88;10.63;;;;;;;7.27;100.00;100324.00;4991782;28;20430;-53
2021/11/05 02:02:08;;;;;;;15.43;10.52;;;;;;;7.34;100.00;100326.41;4999158;28;20053;-52
2021/11/05 02:04:36;;;;;;;17.80;10.23;;;;;;;7.32;99.73;100330.84;5000757;28;20045;-53
2021/11/05 02:07:03;;;;;;;15.13;10.15;;;;;;;7.29;99.76;100332.72;5002658;28;20058;-52
2021/11/05 02:09:31;;;;;;;16.85;10.85;;;;;;;7.27;100.00;100337.19;4991973;28;20074;-54
2021/11/05 02:12:00;;;;;;;15.75;10.75;;;;;;;7.28;100.00;100342.41;5000586;28;20050;-52
2021/11/05 02:14:29;;;;;;;15.77;10.80;;;;;;;7.29;100.00;100340.63;5002763;28;20539;-54
2021/11/05 02:16:58;;;;;;;15.75;11.05;;;;;;;7.30;100.00;100345.84;5001055;28;20050;-54
2021/11/05 02:19:28;;;;;;;16.45;10.73;;;;;;;7.31;100.00;100355.47;4993859;28;20057;-54
2021/11/05 02:21:56;;;;;;;14.43;10.15;;;;;;;7.27;100.00;100348.56;5003046;28;20049;-54
2021/11/05 02:24:24;;;;;;;16.25;10.52;;;;;;;7.29;100.00;100359.06;5001232;28;20069;-52
2021/11/05 02:26:53;;;;;;;15.85;11.00;;;;;;;7.29;100.00;100359.94;4998287;28;20392;-53
2021/11/05 02:29:21;;;;;;;16.30;10.55;;;;;;;7.28;100.00;100363.47;4996313;28;20046;-54
2021/11/05 02:31:49;;;;;;;15.85;10.45;;;;;;;7.29;100.00;100369.59;5000532;28;20054;-55
2021/11/05 02:34:16;;;;;;;15.48;10.02;;;;;;;7.30;100.00;100369.56;4999593;28;20050;-53
2021/11/05 02:36:43;;;;;;;15.73;10.55;;;;;;;7.30;100.00;100382.72;5000847;28;20050;-53
2021/11/05 02:39:09;;;;;;;14.70;9.82;;;;;;;7.29;100.00;100374.88;4995062;28;20046;-51
2021/11/05 02:41:40;;;;;;;13.70;9.15;;;;;;;7.31;100.00;100384.44;4997167;28;20073;-53
2021/11/05 02:44:06;;;;;;;14.10;9.85;;;;;;;7.30;100.00;100385.34;5000978;28;20060;-53
2021/11/05 02:46:33;;;;;;;15.57;10.50;;;;;;;7.28;100.00;100384.53;4999658;28;20137;-54
2021/11/05 02:49:02;;;;;;;15.73;10.57;;;;;;;7.31;100.00;100383.59;4995919;28;20046;-54
2021/11/05 02:51:29;;;;;;;15.10;9.75;;;;;;;7.30;100.00;100392.41;4998471;28;20048;-53
2021/11/05 02:53:56;;;;;;;14.25;10.18;;;;;;;7.31;100.00;100397.63;4996452;28;20081;-54
2021/11/05 02:56:23;;;;;;;15.77;10.52;;;;;;;7.32;100.00;100396.72;5003144;28;20045;-54
2021/11/05 02:58:51;;;;;;;14.38;10.65;;;;;;;7.35;100.00;100401.88;4995861;28;20506;-52
2021/11/05 03:01:19;;;;;;;14.40;10.50;;;;;;;7.36;100.00;100400.09;4996361;28;20061;-53
2021/11/05 03:03:46;;;;;;;14.77;10.77;;;;;;;7.34;100.00;100410.69;4996835;28;20526;-54
2021/11/05 03:06:12;;;;;;;15.05;10.77;;;;;;;7.32;100.00;100412.50;5001916;28;20052;-53
2021/11/05 03:08:39;;;;;;;15.00;10.10;;;;;;;7.30;100.00;100408.19;4994932;28;20513;-53
2021/11/05 03:11:12;;;;;;;16.90;11.47;;;;;;;7.32;100.00;100416.91;4994072;28;20049;-52
2021/11/05 03:13:41;;;;;;;15.70;11.10;;;;;;;7.31;100.00;100416.06;4999933;28;20499;-55
2021/11/05 03:16:08;;;;;;;16.70;10.32;;;;;;;7.29;100.00;100420.50;5003462;28;20046;-52
2021/11/05 03:18:39;;;;;;;15.35;11.32;;;;;;;7.32;100.00;100428.31;5000088;28;20045;-53
2021/11/05 03:21:06;;;;;;;15.40;10.25;;;;;;;7.21;100.00;100416.41;4994795;28;20045;-52
2021/11/05 03:23:34;;;;;;;15.23;11.02;;;;;;;7.32;100.00;100433.59;4999056;28;20049;-54
2021/11/05 03:26:00;;;;;;;16.80;11.32;;;;;;;7.32;99.94;100436.22;5001269;28;20057;-54
2021/11/05 03:28:27;;;;;;;18.17;11.18;;;;;;;7.33;99.99;100434.44;4996967;28;20061;-53
2021/11/05 03:30:53;;;;;;;15.23;11.05;;;;;;;7.34;100.00;100442.31;4993560;28;20046;-55
2021/11/05 03:33:20;;;;;;;16.23;11.43;;;;;;;7.38;100.00;100441.31;4996846;28;20050;-55
2021/11/05 03:35:46;;;;;;;16.55;11.45;;;;;;;7.41;99.65;100453.47;4999473;28;20513;-53
2021/11/05 03:38:13;;;;;;;15.13;11.05;;;;;;;7.38;99.67;100454.47;4997198;28;20045;-54
2021/11/05 03:40:40;;;;;;;17.52;12.10;;;;;;;7.39;99.54;100458.81;4989111;28;20058;-53
2021/11/05 03:43:06;;;;;;;19.85;12.63;;;;;;;7.41;99.34;100464.03;5000044;28;20517;-53
2021/11/05 03:45:33;;;;;;;16.67;11.45;;;;;;;7.38;99.45;100461.50;4993293;28;21840;-51
2021/11/05 03:47:59;;;;;;;15.48;11.35;;;;;;;7.39;99.35;100464.09;4994059;28;20056;-52
2021/11/05 03:50:26;;;;;;;17.05;11.50;;;;;;;7.38;99.40;100462.38;4990459;28;20050;-54
2021/11/05 03:52:52;;;;;;;19.13;11.93;;;;;;;7.38;99.30;100458.88;4997900;28;20148;-54
2021/11/05 03:55:19;;;;;;;19.70;11.52;;;;;;;7.37;99.44;100471.19;4999362;28;20056;-53
2021/11/05 03:57:45;;;;;;;17.13;12.38;;;;;;;7.37;99.35;100470.31;4995840;28;20130;-54
2021/11/05 04:00:12;;;;;;;18.25;12.48;;;;;;;7.35;99.23;100475.63;4991779;28;20054;-55
2021/11/05 04:02:39;;;;;;;19.73;13.13;;;;;;;7.32;98.95;100480.13;4997418;28;20073;-53
2021/11/05 04:05:10;;;;;;;20.25;13.23;;;;;;;7.33;99.08;100484.50;5000111;28;20140;-53
2021/11/05 04:07:36;;;;;;;17.77;11.63;;;;;;;7.34;99.17;100491.50;4994156;28;20050;-53
2021/11/05 04:10:04;;;;;;;17.00;12.45;;;;;;;7.36;99.03;100492.31;4997624;28;20071;-54
2021/11/05 04:12:31;;;;;;;17.10;12.02;;;;;;;7.37;99.18;100502.81;4995517;28;20667;-53
2021/11/05 04:14:58;;;;;;;20.25;12.75;;;;;;;7.36;98.85;100490.53;5000201;28;20041;-53
2021/11/05 04:17:24;;;;;;;17.80;12.70;;;;;;;7.39;98.57;100500.97;4996105;28;20053;-53
2021/11/05 04:19:51;;;;;;;19.65;13.32;;;;;;;7.40;98.28;100507.09;4993364;28;20049;-52
2021/11/05 04:22:17;;;;;;;19.85;12.95;;;;;;;7.39;98.20;100500.97;5002103;28;20061;-53
2021/11/05 04:24:44;;;;;;;19.55;13.18;;;;;;;7.43;97.95;100516.66;4982086;28;20042;-52
2021/11/05 04:27:11;;;;;;;18.33;12.88;;;;;;;7.42;97.88;100521.06;4997559;28;20050;-53
2021/11/05 04:29:37;;;;;;;17.83;12.88;;;;;;;7.43;97.59;100519.28;4991741;28;22460;-54
2021/11/05 04:32:04;;;;;;;20.95;13.60;;;;;;;7.42;97.43;100523.72;4994804;28;20054;-53
2021/11/05 04:34:31;;;;;;;19.35;13.35;;;;;;;7.44;97.55;100528.94;4997430;28;20161;-53
2021/11/05 04:36:58;;;;;;;23.52;13.13;;;;;;;7.45;97.89;100528.88;4996321;28;20049;-56
2021/11/05 04:39:25;;;;;;;21.95;13.88;;;;;;;7.45;97.57;100528.03;4994591;28;20056;-53
2021/11/05 04:41:52;;;;;;;20.17;13.82;;;;;;;7.45;97.45;100538.56;4994203;28;20052;-53
2021/11/05 04:44:18;;;;;;;21.55;13.90;;;;;;;7.45;97.48;100533.28;4998647;28;20046;-54
2021/11/05 04:46:46;;;;;;;21.30;14.13;;;;;;;7.48;96.82;100538.47;4999885;28;20045;-52
2021/11/05 04:49:13;;;;;;;22.80;14.45;;;;;;;7.46;96.99;100538.50;5001281;28;20188;-52
2021/11/05 04:51:40;;;;;;;22.70;13.95;;;;;;;7.50;96.66;100552.47;4996227;28;20053;-56
2021/11/05 04:54:07;;;;;;;22.75;14.35;;;;;;;7.51;95.89;100551.56;5002963;28;20049;-53
2021/11/05 04:56:34;;;;;;;21.55;13.93;;;;;;;7.50;95.35;100550.69;4997824;28;20550;-52
2021/11/05 04:59:01;;;;;;;18.88;12.95;;;;;;;7.53;95.40;100555.00;4998596;28;20046;-53
2021/11/05 05:01:28;;;;;;;21.00;13.90;;;;;;;7.48;95.35;100557.78;4997031;28;20056;-52
2021/11/05 05:03:55;;;;;;;21.33;13.60;;;;;;;7.42;95.70;100555.31;5000139;28;20053;-51
2021/11/05 05:06:21;;;;;;;19.95;13.70;;;;;;;7.40;96.12;100557.13;5002080;28;20056;-54
2021/11/05 05:08:48;;;;;;;22.33;14.23;;;;;;;7.36;96.48;100563.44;4999706;28;20458;-54
2021/11/05 05:11:14;;;;;;;20.35;13.13;;;;;;;7.33;96.66;100560.88;4995336;28;20058;-53
2021/11/05 05:13:41;;;;;;;20.75;13.57;;;;;;;7.35;96.92;100566.97;5000487;28;20053;-53
2021/11/05 05:16:07;;;;;;;22.80;13.18;;;;;;;7.34;96.84;100567.88;5003626;28;20044;-53
2021/11/05 05:18:34;;;;;;;19.80;13.27;;;;;;;7.34;97.38;100566.13;4999378;28;20064;-54
2021/11/05 05:21:00;;;;;;;19.63;13.43;;;;;;;7.32;97.36;100570.56;4997797;28;20041;-53
2021/11/05 05:23:27;;;;;;;19.92;12.15;;;;;;;7.32;97.56;100574.97;4999125;28;20054;-52
2021/11/05 05:25:54;;;;;;;21.63;13.13;;;;;;;7.32;97.67;100581.09;5000670;28;20499;-52
2021/11/05 05:28:20;;;;;;;21.63;13.38;;;;;;;7.30;97.46;100577.66;5000683;28;20070;-53
2021/11/05 05:30:47;;;;;;;20.35;13.75;;;;;;;7.30;97.48;100582.06;4999279;28;20675;-53
2021/11/05 05:33:13;;;;;;;20.90;12.85;;;;;;;7.29;97.52;100585.59;4998267;28;20064;-52
2021/11/05 05:35:40;;;;;;;21.23;14.02;;;;;;;7.28;97.30;100597.03;5001947;28;20530;-52
2021/11/05 05:38:06;;;;;;;21.85;13.32;;;;;;;7.28;97.17;100589.13;4998761;28;20053;-55
2021/11/05 05:40:33;;;;;;;20.65;13.95;;;;;;;7.27;97.63;100588.28;4996767;28;20053;-53
2021/11/05 05:43:00;;;;;;;23.40;14.63;;;;;;;7.26;97.39;100598.84;4998436;28;20049;-57
2021/11/05 05:45:26;;;;;;;20.05;13.60;;;;;;;7.14;97.22;100586.91;5000817;28;20442;-52
2021/11/05 05:47:53;;;;;;;21.00;14.40;;;;;;;7.20;96.87;100597.28;4996951;28;20072;-54
2021/11/05 05:50:20;;;;;;;22.52;14.43;;;;;;;7.21;97.25;100598.16;4996637;28;20159;-53
2021/11/05 05:52:47;;;;;;;24.33;14.90;;;;;;;7.21;97.30;100614.81;5002079;28;20049;-53
2021/11/05 05:55:15;;;;;;;25.08;14.35;;;;;;;7.24;97.62;100622.59;4999613;28;20132;-52
2021/11/05 05:57:42;;;;;;;23.23;14.52;;;;;;;7.22;97.25;100621.81;5002231;28;20502;-54
2021/11/05 06:00:13;;;;;;;24.75;15.55;;;;;;;7.19;97.07;100616.63;4998644;28;20450;-54
2021/11/05 06:02:39;;;;;;;26.75;16.25;;;;;;;7.20;97.03;100628.03;4993670;28;20050;-52
2021/11/05 06:05:06;;;;;;;23.38;14.98;;;;;;;7.20;97.05;100631.53;4999789;28;20070;-53
2021/11/05 06:07:33;;;;;;;26.08;15.88;;;;;;;7.19;96.96;100642.09;4995588;28;20060;-52
2021/11/05 06:10:00;;;;;;;26.08;15.32;;;;;;;7.18;96.92;100640.38;4999762;28;20050;-53
2021/11/05 06:12:28;;;;;;;23.30;15.40;;;;;;;7.19;97.09;100652.63;4994149;28;20149;-54
2021/11/05 06:14:54;;;;;;;26.02;16.45;;;;;;;7.18;96.62;100657.03;4998149;28;20053;-52
2021/11/05 06:17:21;;;;;;;26.60;16.52;;;;;;;7.18;96.52;100653.53;4994576;28;20056;-56
2021/11/05 06:19:47;;;;;;;25.55;15.73;;;;;;;7.18;96.80;100662.31;4997867;28;20050;-54
2021/11/05 06:22:14;;;;;;;23.38;15.18;;;;;;;7.20;96.83;100667.53;4993468;28;20057;-52
2021/11/05 06:24:40;;;;;;;24.90;16.67;;;;;;;7.19;96.40;100666.66;5001843;28;20518;-57
2021/11/05 06:27:10;;;;;;;24.45;15.85;;;;;;;7.19;96.47;100673.72;4996838;28;20046;-52
2021/11/05 06:29:36;;;;;;;27.98;16.75;;;;;;;7.19;96.36;100671.94;4996246;28;20041;-55
2021/11/05 06:32:03;;;;;;;28.77;16.60;;;;;;;7.19;96.38;100677.19;4992733;28;20419;-52
2021/11/05 06:34:29;;;;;;;27.52;16.65;;;;;;;7.18;96.40;100675.47;4999561;28;20894;-53
2021/11/05 06:36:56;;;;;;;26.27;15.95;;;;;;;7.23;95.95;100684.13;4997547;28;20127;-54
2021/11/05 06:39:24;;;;;;;28.17;17.95;;;;;;;7.24;95.72;100693.72;4993979;28;20703;-51
2021/11/05 06:41:51;;;;;;;24.17;16.55;;;;;;;7.27;96.00;100693.63;4984947;28;20160;-53
2021/11/05 06:44:17;;;;;;;27.25;16.90;;;;;;;7.30;95.68;100697.97;4987515;28;20046;-53
2021/11/05 06:46:44;;;;;;;27.75;18.08;;;;;;;7.19;95.70;100689.50;4985710;28;20058;-55
2021/11/05 06:49:11;;;;;;;28.20;17.50;;;;;;;7.31;95.69;100716.34;4993121;28;20046;-54
2021/11/05 06:51:37;;;;;;;27.63;16.70;;;;;;;7.31;95.76;100715.50;4988924;28;20134;-53
2021/11/05 06:54:04;;;;;;;25.75;17.00;;;;;;;7.32;95.79;100720.72;5003249;28;20124;-54
2021/11/05 06:56:30;;;;;;;29.67;17.52;;;;;;;7.35;96.07;100723.28;4994652;28;20045;-55
2021/11/05 06:58:57;;;;;;;28.25;18.02;;;;;;;7.39;95.73;100730.19;4996756;28;20080;-52
2021/11/05 07:01:23;;;;;;;32.17;18.77;;;;;;;7.45;95.49;100731.75;4986590;28;20053;-54
2021/11/05 07:03:50;;;;;;;32.15;19.20;;;;;;;7.60;98.28;100727.81;5007739;28;20054;-53
2021/11/05 07:06:18;;;;;;;28.60;18.33;;;;;;;7.68;96.83;100737.25;4992116;28;20049;-52
2021/11/05 07:08:44;;;;;;;38.08;18.52;;;;;;;7.65;94.44;100741.72;4989996;28;20267;-52
2021/11/05 07:11:11;;;;;;;34.10;19.45;;;;;;;7.67;95.16;100751.31;4992170;28;20056;-54
2021/11/05 07:13:38;;;;;;;30.15;18.98;;;;;;;7.69;96.76;100735.47;4990555;28;20046;-54
2021/11/05 07:16:05;;;;;;;30.17;17.42;;;;;;;7.85;94.70;100755.19;4995212;28;20041;-52
2021/11/05 07:18:32;;;;;;;31.23;19.00;;;;;;;7.92;94.56;100766.41;4988479;28;20044;-51
2021/11/05 07:21:03;;;;;;;29.10;17.80;;;;;;;7.97;93.87;100770.63;4989956;28;20050;-51
2021/11/05 07:23:31;;;;;;;;;;;;;;;7.93;92.35;100779.53;4990066;28;20049;-52
2021/11/05 07:26:02;;;;;;;31.08;18.20;;;;;;;7.92;92.09;100777.81;4989729;28;19926;-52
2021/11/05 07:28:30;;;;;;;30.65;18.60;;;;;;;7.90;92.54;100779.63;4988088;28;20388;-51
2021/11/05 07:30:56;;;;;;;29.38;18.25;;;;;;;7.93;93.18;100795.38;4983917;28;20046;-52
2021/11/05 07:33:23;;;;;;;33.45;19.25;;;;;;;7.97;92.25;100804.06;4987296;28;20042;-52
2021/11/05 07:35:49;;;;;;;29.30;19.13;;;;;;;7.94;91.85;100806.78;4992263;28;20054;-52
2021/11/05 07:38:16;;;;;;;31.25;19.20;;;;;;;7.96;92.31;100820.78;5003617;28;20495;-52
2021/11/05 07:40:42;;;;;;;33.00;18.98;;;;;;;7.99;92.19;100818.06;4993711;28;20072;-52
2021/11/05 07:43:09;;;;;;;30.25;18.45;;;;;;;8.01;91.86;100830.31;4990048;28;20092;-53
2021/11/05 07:45:36;;;;;;;34.22;20.52;;;;;;;8.09;92.38;100837.97;4990319;28;20708;-54
2021/11/05 07:48:02;;;;;;;32.83;19.70;;;;;;;8.05;90.90;100839.81;4990291;28;20056;-53
2021/11/05 07:50:38;;;;;;;34.10;20.05;;;;;;;8.03;91.05;100843.41;4990982;28;20042;-52
2021/11/05 07:53:05;;;;;;;31.30;19.17;;;;;;;7.99;91.04;100855.84;4986524;28;20056;-54
2021/11/05 07:55:33;;;;;;;35.38;19.30;;;;;;;8.02;91.18;100858.41;4991748;28;20049;-53
2021/11/05 07:58:00;;;;;;;34.80;21.02;;;;;;;8.07;91.30;100867.03;4989313;28;20060;-53
2021/11/05 08:00:27;;;;;;;32.55;19.17;;;;;;;8.16;91.49;100870.31;4993391;28;20065;-53
2021/11/05 08:02:55;;;;;;;33.70;19.88;;;;;;;8.35;91.80;100871.50;4989749;28;20077;-52
2021/11/05 08:05:21;;;;;;;34.28;19.48;;;;;;;8.41;90.53;100876.63;4991929;28;20054;-54
2021/11/05 08:07:48;;;;;;;34.25;20.42;;;;;;;8.40;89.86;100867.84;4988541;28;20049;-52
2021/11/05 08:10:20;;;;;;;31.38;19.48;;;;;;;8.54;88.96;100895.56;4999321;28;20090;-53
2021/11/05 08:12:49;;;;;;;30.08;18.45;;;;;;;8.58;88.70;100900.72;4984138;28;20496;-53
2021/11/05 08:15:15;;;;;;;38.78;20.77;;;;;;;8.61;88.08;100903.28;4993407;28;20042;-53
2021/11/05 08:17:43;;;;;;;37.03;21.95;;;;;;;8.61;88.10;100905.91;4995518;28;20053;-53
2021/11/05 08:20:12;;;;;;;34.90;21.38;;;;;;;8.68;87.39;100910.06;4992702;28;20802;-52
2021/11/05 08:22:42;;;;;;;35.33;21.13;;;;;;;8.77;87.46;100904.53;4990008;28;20056;-52
2021/11/05 08:25:10;;;;;;;37.60;19.92;;;;;;;8.88;86.84;100913.88;4997885;28;20061;-52
2021/11/05 08:27:38;;;;;;;37.95;21.45;;;;;;;8.93;86.33;100917.25;4995752;28;20407;-52
2021/11/05 08:30:08;;;;;;;36.63;21.27;;;;;;;8.90;85.90;100918.19;4989210;28;20049;-52
2021/11/05 08:32:35;;;;;;;;;;;;;;;8.94;85.93;100926.91;4987315;28;20381;-52
2021/11/05 08:35:03;;;;;;;33.05;19.58;;;;;;;8.99;85.35;100932.88;4996410;28;20306;-51
2021/11/05 08:37:29;;;;;;;38.40;21.52;;;;;;;9.08;85.92;100929.97;4976841;28;20046;-52
2021/11/05 08:39:56;;;;;;;34.42;21.02;;;;;;;9.15;85.33;100939.41;4996497;28;20049;-53
2021/11/05 08:42:24;;;;;;;35.20;21.33;;;;;;;9.26;87.14;100942.59;4984846;28;20097;-53
2021/11/05 08:44:50;;;;;;;38.47;22.50;;;;;;;9.34;84.06;100948.47;4991732;28;20061;-52
2021/11/05 08:47:19;;;;;;;34.45;20.17;;;;;;;9.35;83.50;100951.97;4999384;28;20407;-52
2021/11/05 08:49:50;;;;;;;32.95;20.20;;;;;;;9.30;84.78;100956.53;4987245;28;20475;-52
2021/11/05 08:52:17;;;;;;;;;;;;;;;9.28;86.48;100961.03;4986747;28;20058;-53
2021/11/05 08:54:43;;;;;;;36.25;19.88;;;;;;;9.35;88.32;100960.75;4992308;28;19929;-52
2021/11/05 08:57:10;;;;;;;37.55;21.50;;;;;;;9.43;87.55;100961.38;4995289;28;20046;-53
2021/11/05 08:59:38;;;;;;;40.35;20.55;;;;;;;9.46;86.97;100966.53;4996284;28;20054;-53
2021/11/05 09:02:04;;;;;;;37.67;20.88;;;;;;;9.56;85.33;100976.84;5007831;28;20053;-52
2021/11/05 09:04:31;;;;;;;36.80;20.52;;;;;;;9.64;85.71;100974.78;5012945;28;20124;-52
2021/11/05 09:06:58;;;;;;;33.30;20.50;;;;;;;9.72;82.79;100978.03;5011886;28;20046;-55
2021/11/05 09:09:24;;;;;;;35.22;20.33;;;;;;;9.69;80.71;100978.16;5011809;28;20056;-53
2021/11/05 09:11:52;;;;;;;32.22;19.88;;;;;;;9.76;79.82;100983.16;5015693;28;20136;-53
2021/11/05 09:14:20;;;;;;;35.08;20.73;;;;;;;9.79;80.38;100983.06;5015226;28;20044;-52
2021/11/05 09:17:06;;;;;;;36.50;20.63;;;;;;;9.78;80.13;100986.63;5020217;28;20664;-52
2021/11/05 09:19:33;;;;;;;33.47;19.73;;;;;;;9.77;79.54;100984.88;5018541;28;20041;-53
2021/11/05 09:21:59;;;;;;;34.65;19.15;;;;;;;9.82;81.12;101004.13;5005456;28;20054;-53
2021/11/05 09:24:26;;;;;;;38.35;21.60;;;;;;;9.91;83.08;101004.75;5006244;28;20048;-53
2021/11/05 09:26:53;;;;;;;31.40;19.38;;;;;;;9.86;79.64;100999.59;5010988;28;20126;-52
2021/11/05 09:29:20;;;;;;;31.67;19.48;;;;;;;9.85;82.70;101008.44;5013934;28;20457;-55
2021/11/05 09:31:46;;;;;;;32.78;19.38;;;;;;;9.90;80.84;101009.16;5009227;28;20045;-52
2021/11/05 09:34:13;;;;;;;36.80;20.60;;;;;;;9.93;80.96;101014.31;5018461;28;20048;-53
2021/11/05 09:36:39;;;;;;;32.80;19.25;;;;;;;9.89;81.29;101018.00;5014595;28;20057;-52
2021/11/05 09:39:06;;;;;;;32.97;20.02;;;;;;;9.89;80.79;101023.31;5009554;28;20073;-52
2021/11/05 09:41:32;;;;;;;36.85;20.23;;;;;;;9.85;79.33;101027.81;5011144;28;20056;-51
2021/11/05 09:43:59;;;;;;;34.42;20.27;;;;;;;9.76;79.99;101040.47;5009383;28;20057;-53
2021/11/05 09:46:26;;;;;;;33.88;19.50;;;;;;;9.58;80.53;101033.19;5012659;28;20061;-51
2021/11/05 09:48:52;;;;;;;35.33;20.27;;;;;;;9.54;80.75;101037.69;5015719;28;20733;-51
2021/11/05 09:51:19;;;;;;;30.88;19.70;;;;;;;9.60;81.44;101040.13;5012933;28;20052;-52
2021/11/05 09:53:46;;;;;;;32.15;20.00;;;;;;;9.70;80.40;101051.28;5006593;28;20392;-51
2021/11/05 09:56:14;;;;;;;31.33;19.05;;;;;;;9.75;80.42;101054.66;5015512;28;20050;-57
2021/11/05 09:58:44;;;;;;;32.30;19.60;;;;;;;9.67;79.84;101030.22;5014986;28;20048;-54
2021/11/05 10:01:11;;;;;;;34.42;19.95;;;;;;;9.83;79.83;101061.41;5007046;28;20058;-53
2021/11/05 10:03:38;;;;;;;32.00;19.08;;;;;;;9.84;78.83;101060.50;4992146;28;20125;-52
2021/11/05 10:06:10;;;;;;;31.45;19.80;;;;;;;9.79;79.69;101062.41;5000158;28;20072;-53
2021/11/05 10:08:36;;;;;;;32.58;18.85;;;;;;;9.97;79.15;101065.34;5001836;28;20051;-52
2021/11/05 10:11:24;;;;;;;33.50;20.48;;;;;;;10.08;77.90;101065.84;4998975;28;20155;-54
2021/11/05 10:13:56;;;;;;;29.10;18.27;;;;;;;10.24;77.80;101063.56;4992155;28;20601;-53
2021/11/05 10:16:25;;;;;;;32.63;19.42;;;;;;;10.41;78.00;101070.00;4993195;28;22138;-54
2021/11/05 10:19:07;;;;;;;31.10;18.75;;;;;;;10.60;75.76;101075.50;4998004;28;20590;-53
2021/11/05 10:21:40;;;;;;;29.73;18.70;;;;;;;10.59;75.10;101065.84;4994894;28;20503;-54
2021/11/05 10:24:12;;;;;;;29.98;18.02;;;;;;;10.58;75.55;101068.53;4997091;28;20144;-52
2021/11/05 10:26:40;;;;;;;30.67;18.90;;;;;;;10.71;75.07;101073.31;4995514;28;20050;-53
2021/11/05 10:29:08;;;;;;;30.40;19.40;;;;;;;10.95;74.06;101076.00;4999048;28;20050;-51
2021/11/05 10:31:47;;;;;;;32.75;20.08;;;;;;;10.80;73.58;101077.44;4994719;28;20152;-52
2021/11/05 10:34:13;;;;;;;33.80;18.83;;;;;;;10.68;74.81;101078.75;4997407;28;20124;-52
2021/11/05 10:36:48;;;;;;;33.13;19.73;;;;;;;10.70;73.45;101081.34;4998760;28;20138;-52
2021/11/05 10:39:15;;;;;;;29.65;16.85;;;;;;;10.72;72.99;101083.00;5000163;28;20041;-52
2021/11/05 10:41:41;;;;;;;27.92;16.65;;;;;;;10.75;73.01;101084.69;5000880;28;20056;-54
2021/11/05 10:44:16;;;;;;;26.40;15.45;;;;;;;10.70;71.44;101086.66;4992232;28;20056;-51
2021/11/05 10:46:43;;;;;;;26.73;16.60;;;;;;;10.68;71.79;101091.13;4995040;28;20061;-52
2021/11/05 10:49:15;;;;;;;31.33;17.75;;;;;;;10.57;72.96;101094.16;4998746;28;20038;-54
2021/11/05 10:51:42;;;;;;;24.45;16.52;;;;;;;10.59;73.49;101092.31;4998944;28;20514;-52
2021/11/05 10:54:08;;;;;;;28.63;17.10;;;;;;;10.47;73.48;101080.38;4989901;28;20375;-52
2021/11/05 10:56:35;;;;;;;29.35;17.45;;;;;;;10.53;73.58;101096.06;5000317;28;20045;-53
2021/11/05 10:59:08;;;;;;;30.45;17.48;;;;;;;10.48;74.09;101097.13;4998987;28;20050;-52
2021/11/05 11:01:36;;;;;;;28.38;17.80;;;;;;;10.51;74.03;101104.97;4998287;28;20482;-52
2021/11/05 11:04:05;;;;;;;33.55;17.80;;;;;;;10.56;73.95;101100.38;4991863;28;20056;-54
2021/11/05 11:06:40;;;;;;;27.33;16.95;;;;;;;10.57;73.49;101102.09;5002522;28;20060;-52
2021/11/05 11:09:09;;;;;;;31.63;17.25;;;;;;;10.63;73.57;101101.03;4999593;28;20146;-52
2021/11/05 11:11:38;;;;;;;27.95;16.77;;;;;;;10.85;73.92;101105.50;5000068;28;20054;-52
2021/11/05 11:14:08;;;;;;;24.65;15.60;;;;;;;11.05;70.24;101102.09;4995161;28;20040;-53
2021/11/05 11:16:39;;;;;;;23.33;15.00;;;;;;;11.15;70.30;101102.63;4998830;28;20045;-51
2021/11/05 11:19:10;;;;;;;;;;;;;;;11.27;70.30;101110.09;5000778;28;20041;-52